Latest Weather Observations for Longerenong

IDV60801

Issued at 6:05 pm EST Friday 25 July 2014 (issued every 30 minutes, with the page automatically refreshed every 10 minutes)

About weather observations | Map of weather stations | Latest weather observations for VIC | Other Formats
Station Details ID: 079028 Name: LONGERENONG Lat: -36.67 Lon: 142.30 Height: 133.0 m
Data from the previous 72 hours. | See also: Recent months at Longerenong
Date/Time
EST
Temp
°C
App
Temp
°C
Dew
Point
Rel
Hum
%
Delta-T
°C
Wind Press
QNH
hPa
Press
MSL
hPa
Rain
since 9 am
mm
Dir
 
Spd
km/h
Gust
km/h
Spd
kts
Gust
kts
25/06:00pm 9.6 - - - - WNW 7 9 4 5 - - 1.2
25/05:30pm 11.1 - - - - WNW 9 11 5 6 - - 1.2
25/05:00pm 11.4 - - - - NW 9 11 5 6 - - 1.2
25/04:30pm 11.2 - - - - WNW 15 20 8 11 - - 1.2
25/04:00pm 12.3 - - - - WNW 13 17 7 9 - - 0.6
25/03:30pm 12.4 - - - - WNW 17 20 9 11 - - 0.4
25/03:00pm 13.4 - - - - WNW 11 19 6 10 - - 0.2
25/02:30pm 13.3 - - - - NW 11 17 6 9 - - 0.2
25/02:00pm 13.7 - - - - NW 15 20 8 11 - - 0.0
25/01:30pm 13.4 - - - - NW 15 20 8 11 - - 0.0
25/01:00pm 12.7 - - - - NW 17 22 9 12 - - 0.0
25/12:30pm 12.0 - - - - NW 17 24 9 13 - - 0.0
25/12:00pm 12.0 - - - - NW 17 24 9 13 - - 0.0
25/11:30am 11.5 - - - - NW 20 26 11 14 - - 0.0
25/11:00am 11.0 - - - - NW 20 26 11 14 - - 0.0
25/10:30am 11.0 - - - - NNW 15 22 8 12 - - 0.0
25/10:00am 10.5 - - - - NNW 19 26 10 14 - - 0.0
25/09:30am 10.2 - - - - NNW 19 24 10 13 - - 0.0
25/09:00am 10.0 - - - - NNW 19 24 10 13 - - 1.4
25/08:30am 9.7 - - - - NNW 19 26 10 14 - - 1.4
25/08:00am 9.6 - - - - NNW 19 22 10 12 - - 1.4
25/07:30am 9.5 - - - - NNW 17 20 9 11 - - 1.4
25/07:00am 9.5 - - - - N 19 28 10 15 - - 1.4
25/06:30am 9.6 - - - - N 19 24 10 13 - - 1.4
25/06:00am 9.8 - - - - N 19 24 10 13 - - 1.2
25/05:30am 9.9 - - - - N 17 26 9 14 - - 1.2
25/05:00am 10.1 - - - - N 17 24 9 13 - - 1.2
25/04:30am 10.3 - - - - N 15 20 8 11 - - 1.2
25/04:00am 10.3 - - - - N 13 19 7 10 - - 1.2
25/03:30am 10.4 - - - - N 15 20 8 11 - - 1.2
25/03:00am 10.4 - - - - N 15 20 8 11 - - 1.2
25/02:30am 10.4 - - - - N 15 20 8 11 - - 1.2
25/02:00am 10.4 - - - - N 13 19 7 10 - - 1.2
25/01:30am 10.5 - - - - N 15 19 8 10 - - 1.2
25/01:00am 10.6 - - - - N 17 20 9 11 - - 1.2
25/12:30am 10.7 - - - - N 19 24 10 13 - - 1.2
25/12:00am 10.7 - - - - N 19 24 10 13 - - 1.2
 
Date/Time
EST
Temp
°C
App
Temp
°C
Dew
Point
Rel
Hum
%
Delta-T
°C
Wind Press
QNH
hPa
Press
MSL
hPa
Rain
since 9 am
mm
Dir
 
Spd
km/h
Gust
km/h
Spd
kts
Gust
kts
24/11:30pm 10.5 - - - - N 15 20 8 11 - - 1.2
24/11:00pm 10.5 - - - - N 15 22 8 12 - - 1.2
24/10:30pm 10.5 - - - - N 13 20 7 11 - - 1.0
24/10:00pm 10.1 - - - - N 13 19 7 10 - - 0.8
24/09:30pm 10.0 - - - - NNE 11 17 6 9 - - 0.4
24/09:00pm 10.2 - - - - N 11 19 6 10 - - 0.4
24/08:30pm 10.4 - - - - NNE 11 19 6 10 - - 0.2
24/08:00pm 10.4 - - - - NNE 11 17 6 9 - - 0.2
24/07:30pm 10.4 - - - - NNE 9 17 5 9 - - 0.2
24/07:00pm 10.8 - - - - NNE 9 13 5 7 - - 0.2
24/06:30pm 11.0 - - - - N 13 19 7 10 - - 0.2
24/06:00pm 11.6 - - - - N 11 17 6 9 - - 0.2
24/05:30pm 11.9 - - - - N 11 17 6 9 - - 0.2
24/05:00pm 12.5 - - - - N 6 9 3 5 - - 0.0
24/04:30pm 12.6 - - - - N 9 13 5 7 - - 0.0
24/04:00pm 12.4 - - - - N 15 20 8 11 - - 0.0
24/03:30pm 13.6 - - - - NNE 15 24 8 13 - - 0.0
24/03:00pm 13.3 - - - - NNE 19 28 10 15 - - 0.0
24/02:30pm 13.4 - - - - NNE 19 32 10 17 - - 0.0
24/02:00pm 13.1 - - - - NNE 20 32 11 17 - - 0.0
24/01:30pm 12.7 - - - - NNE 20 30 11 16 - - 0.0
24/01:00pm 12.3 - - - - NE 20 33 11 18 - - 0.0
24/12:30pm 11.8 - - - - NE 19 32 10 17 - - 0.0
24/12:00pm 11.7 - - - - ENE 19 32 10 17 - - 0.0
24/11:30am 10.7 6.8 10.7 100 0.0 ENE 22 41 12 22 - - 0.0
24/11:00am 9.9 6.1 9.9 100 0.0 ENE 20 32 11 17 - - 0.0
24/10:30am 9.4 5.7 9.4 100 0.0 ENE 19 33 10 18 - - 0.0
24/10:00am 9.2 5.8 9.2 100 0.0 ENE 17 24 9 13 - - 0.0
24/09:30am 8.9 5.8 8.9 100 0.0 E 15 26 8 14 - - 0.0
24/09:00am 8.7 5.2 8.7 100 0.0 E 17 24 9 13 - - 5.4
24/08:30am 8.3 4.3 8.3 100 0.0 ENE 19 28 10 15 - - 5.4
24/08:00am 8.2 4.6 8.2 100 0.0 E 17 28 9 15 - - 5.4
24/07:30am 8.2 4.9 8.2 100 0.0 E 15 24 8 13 - - 5.2
24/07:00am 8.2 5.3 8.2 100 0.0 ENE 13 22 7 12 - - 5.2
24/06:30am 8.0 5.5 8.0 100 0.0 ENE 11 19 6 10 - - 5.0
24/06:00am 7.9 5.3 7.9 100 0.0 ENE 11 17 6 9 - - 4.6
24/05:30am 7.7 5.1 7.7 100 0.0 ENE 11 17 6 9 - - 4.0
24/05:00am 7.6 5.3 7.6 100 0.0 ENE 9 13 5 7 - - 3.0
24/04:30am 7.5 5.6 7.5 100 0.0 ENE 7 13 4 7 - - 2.4
24/04:00am 7.5 5.6 7.5 100 0.0 ENE 7 11 4 6 - - 1.6
24/03:30am 7.5 5.2 7.5 100 0.0 E 9 17 5 9 - - 1.0
24/03:00am 7.6 5.3 7.6 100 0.0 E 9 13 5 7 - - 0.6
24/02:30am 7.8 6.2 7.8 100 0.0 ENE 6 9 3 5 - - 0.4
24/02:00am 7.8 6.0 7.8 100 0.0 ENE 7 13 4 7 - - 0.0
24/01:30am 7.8 4.8 7.8 100 0.0 ENE 13 19 7 10 - - 0.0
24/01:00am 7.7 4.7 7.7 100 0.0 E 13 20 7 11 - - 0.0
24/12:30am 7.5 4.8 7.5 100 0.0 E 11 19 6 10 - - 0.0
24/12:00am 7.3 4.6 7.3 100 0.0 E 11 17 6 9 - - 0.0
 
Date/Time
EST
Temp
°C
App
Temp
°C
Dew
Point
Rel
Hum
%
Delta-T
°C
Wind Press
QNH
hPa
Press
MSL
hPa
Rain
since 9 am
mm
Dir
 
Spd
km/h
Gust
km/h
Spd
kts
Gust
kts
23/11:30pm 7.1 4.7 7.1 100 0.0 E 9 17 5 9 - - 0.0
23/11:00pm 7.5 4.5 7.5 100 0.0 E 13 19 7 10 - - 0.0
23/10:30pm 7.8 4.4 7.8 100 0.0 E 15 24 8 13 - - 0.0
23/10:00pm 8.1 4.8 8.1 100 0.0 E 15 26 8 14 - - 0.0
23/09:30pm 7.8 4.4 7.8 100 0.0 E 15 20 8 11 - - 0.0
23/09:00pm 7.6 5.0 7.6 100 0.0 E 11 17 6 9 - - 0.0
23/08:30pm 7.8 5.2 7.8 100 0.0 E 11 15 6 8 - - 0.0
23/08:00pm 8.0 5.8 8.0 100 0.0 E 9 13 5 7 - - 0.0
23/07:30pm 8.1 5.2 8.1 100 0.0 E 13 20 7 11 - - 0.0
23/07:00pm 7.6 5.3 7.6 100 0.0 E 9 13 5 7 - - 0.0
23/06:30pm 7.6 5.7 7.6 100 0.0 E 7 11 4 6 - - 0.0
23/06:00pm 8.2 6.1 8.1 99 0.0 E 9 15 5 8 - - 0.0
23/05:30pm 8.7 7.1 8.6 99 0.0 E 7 11 4 6 - - 0.0
23/05:00pm 9.7 8.1 8.9 95 0.4 ENE 7 9 4 5 - - 0.0
23/04:30pm 10.5 8.3 9.3 92 0.6 NE 11 20 6 11 - - 0.0
23/04:00pm 10.7 9.0 9.8 94 0.5 NE 9 17 5 9 - - 0.0
23/03:30pm 10.5 8.5 10.3 99 0.1 ENE 11 17 6 9 - - 0.0
23/03:00pm 10.4 8.4 10.2 99 0.1 ENE 11 20 6 11 - - 0.0
23/02:30pm 11.2 9.1 11.2 100 0.0 NE 13 20 7 11 - - 0.0
23/02:00pm 10.1 8.1 10.1 100 0.0 NE 11 17 6 9 - - 0.0
23/01:30pm 10.0 8.0 10.0 100 0.0 NE 11 19 6 10 - - 0.0
23/01:00pm 8.9 6.2 8.9 100 0.0 NE 13 19 7 10 - - 0.0
23/12:30pm 8.0 5.5 8.0 100 0.0 NE 11 17 6 9 - - 0.0
23/12:00pm 7.4 5.1 7.4 100 0.0 NE 9 17 5 9 - - 0.0
23/11:30am 6.2 3.6 6.2 100 0.0 NE 9 19 5 10 - - 0.0
23/11:00am 5.4 2.3 5.4 100 0.0 NE 11 19 6 10 - - 0.0
23/10:30am 5.7 2.6 5.7 100 0.0 NE 11 17 6 9 - - 0.0
23/10:00am 4.7 1.4 4.7 100 0.0 ENE 11 17 6 9 - - 0.0
23/09:30am 2.5 -0.4 2.5 100 0.0 ENE 7 11 4 6 - - 0.0
23/09:00am 0.5 -2.5 0.5 100 0.0 ENE 6 9 3 5 - - 0.2
23/08:30am -0.1 -2.1 -0.1 100 0.0 CALM 0 0 0 0 - - 0.2
23/08:00am -0.4 -2.4 -0.4 100 0.0 CALM 0 0 0 0 - - 0.2
23/07:30am -0.3 -2.3 -0.3 100 0.0 CALM 0 0 0 0 - - 0.2
23/07:00am -0.5 -2.6 -0.5 100 0.0 CALM 0 0 0 0 - - 0.2
23/06:30am -0.4 -2.4 -0.4 100 0.0 CALM 0 0 0 0 - - 0.2
23/06:00am -0.8 -2.9 -0.8 100 0.0 CALM 0 0 0 0 - - 0.2
23/05:30am -1.1 -3.2 -1.1 100 0.0 CALM 0 0 0 0 - - 0.2
23/05:00am -1.3 -3.5 -1.3 100 0.0 CALM 0 0 0 0 - - 0.2
23/04:30am -1.3 -3.5 -1.3 100 0.0 CALM 0 0 0 0 - - 0.2
23/04:00am -1.4 -3.6 -1.4 100 0.0 CALM 0 0 0 0 - - 0.2
23/03:30am -1.9 -4.1 -1.9 100 0.0 CALM 0 0 0 0 - - 0.2
23/03:00am -0.9 -3.0 -0.9 100 0.0 CALM 0 0 0 0 - - 0.2
23/02:30am -0.8 -4.0 -0.8 100 0.0 E 6 7 3 4 - - 0.2
23/02:00am -0.6 -3.4 -0.6 100 0.0 E 4 6 2 3 - - 0.2
23/01:30am -0.7 -3.9 -0.7 100 0.0 E 6 7 3 4 - - 0.2
23/01:00am -0.3 -3.1 -0.3 100 0.0 E 4 4 2 2 - - 0.2
23/12:30am -0.6 -3.4 -0.6 100 0.0 ESE 4 4 2 2 - - 0.2
23/12:00am 0.3 -3.0 0.3 100 0.0 ESE 7 7 4 4 - - 0.2
 
Date/Time
EST
Temp
°C
App
Temp
°C
Dew
Point
Rel
Hum
%
Delta-T
°C
Wind Press
QNH
hPa
Press
MSL
hPa
Rain
since 9 am
mm
Dir
 
Spd
km/h
Gust
km/h
Spd
kts
Gust
kts
22/11:30pm -0.2 -2.2 -0.2 100 0.0 CALM 0 0 0 0 - - 0.2
22/11:00pm 0.8 -1.1 0.8 100 0.0 CALM 0 0 0 0 - - 0.2
22/10:30pm 1.5 -0.3 1.5 100 0.0 CALM 0 0 0 0 - - 0.2
22/10:00pm 2.3 -0.1 2.3 100 0.0 NNW 4 4 2 2 - - 0.2
22/09:30pm 2.4 -0.3 2.4 100 0.0 NNW 6 7 3 4 - - 0.2
22/09:00pm 2.6 -0.7 2.6 100 0.0 NNW 9 11 5 6 - - 0.2
22/08:30pm 3.0 -0.2 3.0 100 0.0 NNW 9 9 5 5 - - 0.2
22/08:00pm 4.1 1.7 4.1 100 0.0 NE 6 6 3 3 - - 0.2
22/07:30pm 4.1 2.0 4.1 100 0.0 NE 4 7 2 4 - - 0.2
22/07:00pm 5.5 4.1 5.5 100 0.0 NE 2 4 1 2 - - 0.2
22/06:30pm 5.4 4.4 5.4 100 0.0 CALM 0 0 0 0 - - 0.2

Other Formats:

Comma delimited format used in spreadsheet applications
http://www.bom.gov.au/fwo/IDV60801/IDV60801.95835.axf

JavaScript Object Notation format (JSON) in row-major order
http://www.bom.gov.au/fwo/IDV60801/IDV60801.95835.json